Time;durP1;ratioP1;P1;durP2;ratioP2;P2;SDS_P1;SDS_P2;PMS_P1;PMS_P2;Temp;Humidity;BMP_temperature;BMP_pressure;BME280_temperature;BME280_humidity;BME280_pressure;Samples;Min_cycle;Max_cycle;Signal;HPM_P1;HPM_P2
2022/11/26 00:00:51;;;;;;;59.05;29.80;;;;;;;;;;4997164;28;20089;-92
2022/11/26 00:03:18;;;;;;;53.28;29.75;;;;;;;;;;4997166;28;20022;-91
2022/11/26 00:05:46;;;;;;;56.53;31.52;;;;;;;;;;4997098;28;20026;-92
2022/11/26 00:08:27;;;;;;;60.40;33.00;;;;;;;;;;4996885;28;20033;-91
2022/11/26 00:10:54;;;;;;;54.17;30.40;;;;;;;;;;4997128;28;20030;-92
2022/11/26 00:13:21;;;;;;;55.70;30.90;;;;;;;;;;4996700;28;20034;-92
2022/11/26 00:15:48;;;;;;;57.38;31.23;;;;;;;;;;4996791;28;20113;-91
2022/11/26 00:18:16;;;;;;;56.65;30.98;;;;;;;;;;4996720;28;20120;-91
2022/11/26 00:20:43;;;;;;;57.05;30.67;;;;;;;;;;4996639;28;20050;-89
2022/11/26 00:23:19;;;;;;;55.30;29.58;;;;;;;;;;4996929;28;20034;-90
2022/11/26 00:25:46;;;;;;;55.80;31.40;;;;;;;;;;5000445;28;20076;-91
2022/11/26 00:28:19;;;;;;;55.70;31.20;;;;;;;;;;5000983;28;20030;-90
2022/11/26 00:30:45;;;;;;;56.25;30.92;;;;;;;;;;5005044;28;20137;-90
2022/11/26 00:33:11;;;;;;;54.97;30.75;;;;;;;;;;5008887;28;20037;-89
2022/11/26 00:35:37;;;;;;;49.90;27.55;;;;;;;;;;5002149;28;20084;-91
2022/11/26 00:38:03;;;;;;;55.88;28.67;;;;;;;;;;5001253;28;20038;-90
2022/11/26 00:40:33;;;;;;;46.35;27.83;;;;;;;;;;5001197;28;20486;-90
2022/11/26 00:42:59;;;;;;;52.85;28.98;;;;;;;;;;5000061;28;20120;-91
2022/11/26 00:45:27;;;;;;;50.85;26.80;;;;;;;;;;4999831;28;20083;-90
2022/11/26 00:47:53;;;;;;;52.75;27.02;;;;;;;;;;5000137;28;20022;-91
2022/11/26 00:50:20;;;;;;;46.83;25.42;;;;;;;;;;4999922;28;20118;-92
2022/11/26 00:52:48;;;;;;;50.70;26.08;;;;;;;;;;4999962;28;20092;-92
2022/11/26 00:55:26;;;;;;;45.47;24.85;;;;;;;;;;4999780;28;20022;-90
2022/11/26 00:57:53;;;;;;;43.00;24.80;;;;;;;;;;4999645;28;20455;-90
2022/11/26 01:00:21;;;;;;;40.70;24.58;;;;;;;;;;4999919;28;20033;-90
2022/11/26 01:02:48;;;;;;;41.60;23.23;;;;;;;;;;4999855;28;20069;-91
2022/11/26 01:05:14;;;;;;;45.88;25.27;;;;;;;;;;4999727;28;20064;-92
2022/11/26 01:07:41;;;;;;;46.47;25.08;;;;;;;;;;4999539;28;20033;-91
2022/11/26 01:10:14;;;;;;;45.67;25.13;;;;;;;;;;4999515;28;20030;-91
2022/11/26 01:12:40;;;;;;;47.20;25.35;;;;;;;;;;4999806;28;20482;-91
2022/11/26 01:15:06;;;;;;;43.70;26.02;;;;;;;;;;5000583;28;20128;-91
2022/11/26 01:17:32;;;;;;;43.85;26.30;;;;;;;;;;4999595;28;20026;-91
2022/11/26 01:19:58;;;;;;;45.42;27.30;;;;;;;;;;4999351;28;20475;-91
2022/11/26 01:22:24;;;;;;;52.45;28.73;;;;;;;;;;4999284;28;20120;-92
2022/11/26 01:24:50;;;;;;;43.72;24.95;;;;;;;;;;4999651;28;20030;-92
2022/11/26 01:27:17;;;;;;;71.72;37.90;;;;;;;;;;4999550;28;20489;-90
2022/11/26 01:29:43;;;;;;;56.60;31.35;;;;;;;;;;4999160;28;20041;-91
2022/11/26 01:32:10;;;;;;;50.45;28.25;;;;;;;;;;4999137;28;20394;-91
2022/11/26 01:34:36;;;;;;;48.60;27.38;;;;;;;;;;4999261;28;20022;-91
2022/11/26 01:37:02;;;;;;;47.95;27.30;;;;;;;;;;4999824;28;20479;-91
2022/11/26 01:39:28;;;;;;;52.53;28.55;;;;;;;;;;5000152;28;20026;-92
2022/11/26 01:41:54;;;;;;;53.45;30.45;;;;;;;;;;4999453;28;20065;-91
2022/11/26 01:44:22;;;;;;;56.35;31.35;;;;;;;;;;4999182;28;20022;-92
2022/11/26 01:46:48;;;;;;;48.33;27.15;;;;;;;;;;4999373;28;20123;-91
2022/11/26 01:49:19;;;;;;;50.05;28.13;;;;;;;;;;4998998;28;20521;-91
2022/11/26 01:51:47;;;;;;;46.92;27.13;;;;;;;;;;4998885;28;20038;-92
2022/11/26 01:54:13;;;;;;;53.63;30.25;;;;;;;;;;4998829;28;20116;-92
2022/11/26 01:56:43;;;;;;;45.75;27.58;;;;;;;;;;4998872;28;20034;-91
2022/11/26 01:59:16;;;;;;;55.75;30.55;;;;;;;;;;4998766;28;20018;-91
2022/11/26 02:01:43;;;;;;;67.57;33.97;;;;;;;;;;4998764;28;20057;-91
2022/11/26 02:04:12;;;;;;;56.10;30.67;;;;;;;;;;4998735;28;20403;-91
2022/11/26 02:06:38;;;;;;;60.08;32.22;;;;;;;;;;4998623;28;20116;-91
2022/11/26 02:09:05;;;;;;;52.47;30.15;;;;;;;;;;4998943;28;20029;-91
2022/11/26 02:11:32;;;;;;;56.83;31.45;;;;;;;;;;4998819;28;20030;-92
2022/11/26 02:14:04;;;;;;;60.28;30.40;;;;;;;;;;4998305;28;20482;-90
2022/11/26 02:16:33;;;;;;;75.55;35.72;;;;;;;;;;4998806;28;20030;-91
2022/11/26 02:19:07;;;;;;;58.15;29.77;;;;;;;;;;4998704;28;20025;-90
2022/11/26 02:21:34;;;;;;;66.43;34.92;;;;;;;;;;4998288;28;20029;-91
2022/11/26 02:24:19;;;;;;;70.00;35.97;;;;;;;;;;4998716;28;20463;-92
2022/11/26 02:27:00;;;;;;;60.70;32.90;;;;;;;;;;4998650;28;20030;-92
2022/11/26 02:29:38;;;;;;;101.88;44.40;;;;;;;;;;4998636;28;20056;-92
2022/11/26 02:32:10;;;;;;;62.35;33.33;;;;;;;;;;4998144;28;20041;-91
2022/11/26 02:34:46;;;;;;;83.60;38.55;;;;;;;;;;4997968;28;20163;-91
2022/11/26 02:37:15;;;;;;;93.75;38.85;;;;;;;;;;4998285;28;20034;-92
2022/11/26 02:39:41;;;;;;;88.68;37.13;;;;;;;;;;4998311;28;20112;-92
2022/11/26 02:42:22;;;;;;;69.22;33.30;;;;;;;;;;4998154;28;20018;-90
2022/11/26 02:44:49;;;;;;;65.63;32.10;;;;;;;;;;4998421;28;20033;-92
2022/11/26 02:47:16;;;;;;;63.55;33.10;;;;;;;;;;4997261;28;20049;-91
2022/11/26 02:49:43;;;;;;;55.72;30.48;;;;;;;;;;4997784;28;20021;-91
2022/11/26 02:52:11;;;;;;;64.82;31.45;;;;;;;;;;4998129;28;20034;-91
2022/11/26 02:54:37;;;;;;;52.80;29.23;;;;;;;;;;4998195;28;20049;-92
2022/11/26 02:57:05;;;;;;;54.65;29.42;;;;;;;;;;4997912;28;20040;-90
2022/11/26 02:59:31;;;;;;;63.75;31.50;;;;;;;;;;4997753;28;20109;-90
2022/11/26 03:02:00;;;;;;;53.45;28.67;;;;;;;;;;4997823;28;20026;-91
2022/11/26 03:04:31;;;;;;;53.55;28.60;;;;;;;;;;4997570;28;20036;-91
2022/11/26 03:07:00;;;;;;;75.68;37.53;;;;;;;;;;4997509;28;20513;-91
2022/11/26 03:09:26;;;;;;;75.15;36.38;;;;;;;;;;4997262;28;20022;-91
2022/11/26 03:11:52;;;;;;;74.88;37.03;;;;;;;;;;4997430;28;20125;-92
2022/11/26 03:14:18;;;;;;;56.85;30.80;;;;;;;;;;4997481;28;20026;-91
2022/11/26 03:16:44;;;;;;;73.60;36.20;;;;;;;;;;4997928;28;20152;-91
2022/11/26 03:19:10;;;;;;;65.55;31.98;;;;;;;;;;4997305;28;20157;-91
2022/11/26 03:21:36;;;;;;;75.80;34.97;;;;;;;;;;4997348;28;20386;-91
2022/11/26 03:24:02;;;;;;;53.05;30.98;;;;;;;;;;4997382;28;20025;-90
2022/11/26 03:26:28;;;;;;;51.72;27.83;;;;;;;;;;4997385;28;20069;-90
2022/11/26 03:28:55;;;;;;;50.83;28.70;;;;;;;;;;4997495;28;20112;-91
2022/11/26 03:31:21;;;;;;;51.88;28.52;;;;;;;;;;4997130;28;20096;-91
2022/11/26 03:33:47;;;;;;;71.43;32.65;;;;;;;;;;4999157;28;20033;-91
2022/11/26 03:36:13;;;;;;;54.38;30.67;;;;;;;;;;4998430;28;20085;-91
2022/11/26 03:38:39;;;;;;;53.97;29.77;;;;;;;;;;4997608;28;20022;-90
2022/11/26 03:41:05;;;;;;;57.30;30.10;;;;;;;;;;4997864;28;20028;-91
2022/11/26 03:43:31;;;;;;;66.00;32.05;;;;;;;;;;4997786;28;20052;-92
2022/11/26 03:45:57;;;;;;;61.03;32.20;;;;;;;;;;4997888;28;20041;-90
2022/11/26 03:48:24;;;;;;;87.78;38.35;;;;;;;;;;4999155;28;20038;-91
2022/11/26 03:50:50;;;;;;;100.15;41.15;;;;;;;;;;5002210;28;20025;-89
2022/11/26 03:53:16;;;;;;;82.10;38.85;;;;;;;;;;4997972;28;20187;-91
2022/11/26 03:55:42;;;;;;;80.32;36.50;;;;;;;;;;4996860;28;20482;-92
2022/11/26 03:58:08;;;;;;;83.00;36.63;;;;;;;;;;4996862;28;20026;-91
2022/11/26 04:00:34;;;;;;;57.97;31.60;;;;;;;;;;5000359;28;20475;-91
2022/11/26 04:03:00;;;;;;;86.40;39.67;;;;;;;;;;5000800;28;20033;-91
2022/11/26 04:05:26;;;;;;;63.78;33.28;;;;;;;;;;5002090;28;20402;-91
2022/11/26 04:07:52;;;;;;;56.65;31.52;;;;;;;;;;5001193;28;20025;-91
2022/11/26 04:10:18;;;;;;;68.25;35.17;;;;;;;;;;5000815;28;20026;-92
2022/11/26 04:12:45;;;;;;;62.53;32.33;;;;;;;;;;5000959;28;20103;-91
2022/11/26 04:15:11;;;;;;;57.70;31.98;;;;;;;;;;5000849;28;20029;-92
2022/11/26 04:17:37;;;;;;;54.55;31.17;;;;;;;;;;5001743;28;20044;-91
2022/11/26 04:20:04;;;;;;;50.45;29.73;;;;;;;;;;5000470;28;20123;-92
2022/11/26 04:22:30;;;;;;;83.20;38.78;;;;;;;;;;5000287;28;20034;-91
2022/11/26 04:24:56;;;;;;;54.17;29.35;;;;;;;;;;5001361;28;20114;-91
2022/11/26 04:27:22;;;;;;;48.55;29.38;;;;;;;;;;5000544;28;20057;-90
2022/11/26 04:29:48;;;;;;;55.17;30.63;;;;;;;;;;5001452;28;20366;-91
2022/11/26 04:32:14;;;;;;;50.95;29.88;;;;;;;;;;5001207;28;20034;-91
2022/11/26 04:34:40;;;;;;;52.80;30.23;;;;;;;;;;5000393;28;20029;-92
2022/11/26 04:37:07;;;;;;;67.00;34.40;;;;;;;;;;5000242;28;20029;-90
2022/11/26 04:39:33;;;;;;;54.35;30.63;;;;;;;;;;5001143;28;20022;-91
2022/11/26 04:41:59;;;;;;;53.97;32.20;;;;;;;;;;5000482;28;20041;-89
2022/11/26 04:44:25;;;;;;;60.38;33.72;;;;;;;;;;5000214;28;20137;-91
2022/11/26 04:46:51;;;;;;;54.25;31.23;;;;;;;;;;5000229;28;20144;-92
2022/11/26 04:49:17;;;;;;;57.35;32.92;;;;;;;;;;5000014;28;20083;-91
2022/11/26 04:51:43;;;;;;;67.57;35.53;;;;;;;;;;5000037;28;20042;-92
2022/11/26 04:54:09;;;;;;;48.72;28.88;;;;;;;;;;5000029;28;20478;-90
2022/11/26 04:56:35;;;;;;;61.63;32.58;;;;;;;;;;5000232;28;20056;-91
2022/11/26 04:59:02;;;;;;;57.20;31.23;;;;;;;;;;4999856;28;20063;-91
2022/11/26 05:01:28;;;;;;;77.88;36.90;;;;;;;;;;5000173;28;20113;-90
2022/11/26 05:03:54;;;;;;;52.53;29.42;;;;;;;;;;5000198;28;20105;-92
2022/11/26 05:06:20;;;;;;;50.05;29.35;;;;;;;;;;4999757;28;20034;-91
2022/11/26 05:08:46;;;;;;;68.93;34.38;;;;;;;;;;5000140;28;20459;-92
2022/11/26 05:11:12;;;;;;;48.30;29.05;;;;;;;;;;4998911;28;20034;-91
2022/11/26 05:13:38;;;;;;;51.67;28.88;;;;;;;;;;4999706;28;20061;-92
2022/11/26 05:16:04;;;;;;;66.85;33.95;;;;;;;;;;5000114;28;20116;-91
2022/11/26 05:18:31;;;;;;;45.38;28.05;;;;;;;;;;4999699;28;20030;-91
2022/11/26 05:20:57;;;;;;;50.13;29.13;;;;;;;;;;5000340;28;20084;-91
2022/11/26 05:23:23;;;;;;;43.53;27.65;;;;;;;;;;4999717;28;20030;-91
2022/11/26 05:25:49;;;;;;;51.50;29.52;;;;;;;;;;4999550;28;20025;-92
2022/11/26 05:28:16;;;;;;;44.53;26.52;;;;;;;;;;4999590;28;20479;-91
2022/11/26 05:30:42;;;;;;;52.80;29.58;;;;;;;;;;4999477;28;20389;-92
2022/11/26 05:33:08;;;;;;;42.95;24.42;;;;;;;;;;4999115;28;20038;-91
2022/11/26 05:35:35;;;;;;;43.60;24.58;;;;;;;;;;4999149;28;20030;-91
2022/11/26 05:38:01;;;;;;;39.45;22.48;;;;;;;;;;4999074;28;20493;-91
2022/11/26 05:40:27;;;;;;;27.55;15.68;;;;;;;;;;4999042;28;20022;-91
2022/11/26 05:42:53;;;;;;;23.85;15.23;;;;;;;;;;4999107;28;20049;-92
2022/11/26 05:45:19;;;;;;;22.17;13.68;;;;;;;;;;4999112;28;20030;-91
2022/11/26 05:47:45;;;;;;;20.92;13.68;;;;;;;;;;4999370;28;20018;-90
2022/11/26 05:50:11;;;;;;;17.73;11.85;;;;;;;;;;4999051;28;20040;-91
2022/11/26 05:52:37;;;;;;;19.90;13.27;;;;;;;;;;4998632;28;20034;-92
2022/11/26 05:55:05;;;;;;;13.05;10.18;;;;;;;;;;4998850;28;20120;-91
2022/11/26 05:57:31;;;;;;;16.73;11.00;;;;;;;;;;4998638;28;20029;-91
2022/11/26 05:59:57;;;;;;;12.70;8.77;;;;;;;;;;4998737;28;20034;-91
2022/11/26 06:02:23;;;;;;;15.02;9.52;;;;;;;;;;4998676;28;20030;-91
2022/11/26 06:04:50;;;;;;;13.00;9.27;;;;;;;;;;4998627;28;20489;-92
2022/11/26 06:07:16;;;;;;;20.75;13.38;;;;;;;;;;4998542;28;20026;-90
2022/11/26 06:09:42;;;;;;;17.30;12.23;;;;;;;;;;4998779;28;20025;-91
2022/11/26 06:12:08;;;;;;;14.50;9.80;;;;;;;;;;4998865;28;20069;-91
2022/11/26 06:14:34;;;;;;;11.88;8.52;;;;;;;;;;4998786;28;20045;-88
2022/11/26 06:17:00;;;;;;;13.65;9.82;;;;;;;;;;4999630;28;20521;-91
2022/11/26 06:19:27;;;;;;;15.70;11.02;;;;;;;;;;4998591;28;20053;-91
2022/11/26 06:21:53;;;;;;;13.85;10.15;;;;;;;;;;4997355;28;20074;-92
2022/11/26 06:24:19;;;;;;;13.35;9.73;;;;;;;;;;4998694;28;20478;-91
2022/11/26 06:26:45;;;;;;;20.10;13.57;;;;;;;;;;4998339;28;20026;-91
2022/11/26 06:29:12;;;;;;;15.75;10.90;;;;;;;;;;4998398;28;20026;-90
2022/11/26 06:31:38;;;;;;;18.10;11.95;;;;;;;;;;4997989;28;20029;-91
2022/11/26 06:34:04;;;;;;;15.52;10.70;;;;;;;;;;4998186;28;20056;-91
2022/11/26 06:36:30;;;;;;;15.88;10.55;;;;;;;;;;4998366;28;20022;-91
2022/11/26 06:38:56;;;;;;;19.52;13.63;;;;;;;;;;4997957;28;20022;-91
2022/11/26 06:41:22;;;;;;;28.90;17.13;;;;;;;;;;4998348;28;20466;-91
2022/11/26 06:43:49;;;;;;;18.00;13.55;;;;;;;;;;4998482;28;20026;-91
2022/11/26 06:46:15;;;;;;;41.70;26.02;;;;;;;;;;4997838;28;20049;-91
2022/11/26 06:48:41;;;;;;;26.55;18.63;;;;;;;;;;4997893;28;20056;-90
2022/11/26 06:51:08;;;;;;;29.33;20.02;;;;;;;;;;4997851;28;20056;-91
2022/11/26 06:53:35;;;;;;;33.65;22.38;;;;;;;;;;4997736;28;20034;-91
2022/11/26 06:56:05;;;;;;;26.08;18.70;;;;;;;;;;4997892;28;20053;-93
2022/11/26 06:58:31;;;;;;;30.23;19.67;;;;;;;;;;4997871;28;20033;-91
2022/11/26 07:00:57;;;;;;;26.05;19.02;;;;;;;;;;4998479;28;20033;-90
2022/11/26 07:03:24;;;;;;;27.95;18.48;;;;;;;;;;5008130;28;20054;-91
2022/11/26 07:05:50;;;;;;;26.10;18.98;;;;;;;;;;5004645;28;20030;-91
2022/11/26 07:08:16;;;;;;;26.25;18.60;;;;;;;;;;4997321;28;20124;-91
2022/11/26 07:10:42;;;;;;;26.40;17.95;;;;;;;;;;4998564;28;20054;-89
2022/11/26 07:13:08;;;;;;;26.77;18.13;;;;;;;;;;4996792;28;20033;-90
2022/11/26 07:15:34;;;;;;;31.95;20.65;;;;;;;;;;4997424;28;20026;-90
2022/11/26 07:18:01;;;;;;;25.38;15.75;;;;;;;;;;4997559;28;20036;-89
2022/11/26 07:20:27;;;;;;;26.02;17.63;;;;;;;;;;4997159;28;20026;-91
2022/11/26 07:22:53;;;;;;;22.48;14.70;;;;;;;;;;4997152;28;20025;-89
2022/11/26 07:25:19;;;;;;;20.17;12.77;;;;;;;;;;4997082;28;20033;-88
2022/11/26 07:27:45;;;;;;;18.13;11.88;;;;;;;;;;4996870;28;20474;-89
2022/11/26 07:30:12;;;;;;;14.70;11.02;;;;;;;;;;4997107;28;20113;-90
2022/11/26 07:32:38;;;;;;;16.50;11.73;;;;;;;;;;4994085;28;20402;-91
2022/11/26 07:35:11;;;;;;;16.70;12.43;;;;;;;;;;4997685;28;20029;-93
2022/11/26 07:37:37;;;;;;;21.73;16.02;;;;;;;;;;4996957;28;20030;-90
2022/11/26 07:40:04;;;;;;;17.75;13.23;;;;;;;;;;4998211;28;20505;-89
2022/11/26 07:42:31;;;;;;;17.17;11.70;;;;;;;;;;4997481;28;20425;-88
2022/11/26 07:44:57;;;;;;;23.20;15.43;;;;;;;;;;4997191;28;20084;-91
2022/11/26 07:47:23;;;;;;;15.93;10.52;;;;;;;;;;4996886;28;20434;-90
2022/11/26 07:49:49;;;;;;;28.63;13.85;;;;;;;;;;4997951;28;20026;-92
2022/11/26 07:52:15;;;;;;;18.73;13.30;;;;;;;;;;4997425;28;20038;-90
2022/11/26 07:54:41;;;;;;;150.88;48.05;;;;;;;;;;4997009;28;20026;-89
2022/11/26 07:57:08;;;;;;;104.60;41.08;;;;;;;;;;4997051;28;20113;-90
2022/11/26 07:59:34;;;;;;;19.83;14.90;;;;;;;;;;4998219;28;20084;-88
2022/11/26 08:02:00;;;;;;;21.88;14.93;;;;;;;;;;4997541;28;20113;-92
2022/11/26 08:04:26;;;;;;;31.15;17.63;;;;;;;;;;4998651;28;20028;-90
2022/11/26 08:06:55;;;;;;;59.10;28.23;;;;;;;;;;5050911;23;20091;-93
2022/11/26 08:12:24;;;;;;;73.57;33.30;;;;;;;;;;5023735;28;20072;-90
2022/11/26 08:14:50;;;;;;;110.40;52.97;;;;;;;;;;5017137;28;20089;-90
2022/11/26 08:17:16;;;;;;;18.52;13.32;;;;;;;;;;5016990;28;20025;-89
2022/11/26 08:19:42;;;;;;;25.08;18.25;;;;;;;;;;5018336;28;20547;-94
2022/11/26 08:22:08;;;;;;;16.90;13.75;;;;;;;;;;5020433;28;20497;-93
2022/11/26 08:24:34;;;;;;;41.30;25.85;;;;;;;;;;5016589;28;20029;-92
2022/11/26 08:27:03;;;;;;;40.55;27.35;;;;;;;;;;5019672;28;20032;-95
2022/11/26 08:29:36;;;;;;;37.92;26.38;;;;;;;;;;5024014;28;20030;-94
2022/11/26 08:32:07;;;;;;;37.30;25.67;;;;;;;;;;5018051;28;20034;-91
2022/11/26 08:34:35;;;;;;;36.80;25.83;;;;;;;;;;5036142;28;20385;-93
2022/11/26 08:37:05;;;;;;;39.92;27.20;;;;;;;;;;5020614;28;20033;-95
2022/11/26 08:39:31;;;;;;;38.50;25.10;;;;;;;;;;5016659;28;20045;-91
2022/11/26 08:41:57;;;;;;;40.42;28.80;;;;;;;;;;5016634;28;20026;-92
2022/11/26 08:44:23;;;;;;;44.28;30.35;;;;;;;;;;5016253;28;20028;-91
2022/11/26 08:46:49;;;;;;;25.55;18.25;;;;;;;;;;5020189;28;20167;-92
2022/11/26 08:49:15;;;;;;;40.70;27.75;;;;;;;;;;5020667;28;20473;-93
2022/11/26 08:51:42;;;;;;;83.05;51.22;;;;;;;;;;5015414;28;20478;-93
2022/11/26 08:54:09;;;;;;;65.35;42.50;;;;;;;;;;5000207;28;20029;-95
2022/11/26 08:56:35;;;;;;;42.13;29.45;;;;;;;;;;5000270;28;20018;-95
2022/11/26 08:59:01;;;;;;;34.42;24.33;;;;;;;;;;5000035;28;20034;-93
2022/11/26 09:01:28;;;;;;;59.22;33.25;;;;;;;;;;5000045;28;20475;-90
2022/11/26 09:03:56;;;;;;;40.85;28.08;;;;;;;;;;4999884;28;20018;-89
2022/11/26 09:06:22;;;;;;;31.25;22.77;;;;;;;;;;4999751;28;20065;-90
2022/11/26 09:11:35;;;;;;;13.77;9.70;;;;;;;;;;5018378;28;20061;-94
2022/11/26 09:14:01;;;;;;;13.75;8.85;;;;;;;;;;4999850;28;20022;-91
2022/11/26 09:16:27;;;;;;;11.65;7.28;;;;;;;;;;5017256;28;20037;-96
2022/11/26 09:18:53;;;;;;;9.18;6.63;;;;;;;;;;5017330;28;20459;-94
2022/11/26 09:21:20;;;;;;;9.80;6.80;;;;;;;;;;5001256;28;20022;-94
2022/11/26 09:23:46;;;;;;;9.27;6.80;;;;;;;;;;5000294;28;20029;-96
2022/11/26 09:26:12;;;;;;;9.63;7.70;;;;;;;;;;5000222;28;20037;-96
2022/11/26 09:28:39;;;;;;;9.27;6.47;;;;;;;;;;5000733;28;20144;-94
2022/11/26 09:31:05;;;;;;;7.22;5.82;;;;;;;;;;5000177;28;20156;-95
2022/11/26 09:33:31;;;;;;;9.48;6.40;;;;;;;;;;5001728;28;20102;-96
2022/11/26 09:36:05;;;;;;;8.10;5.80;;;;;;;;;;5002504;28;20026;-96
2022/11/26 09:38:31;;;;;;;8.90;6.07;;;;;;;;;;5002539;28;20037;-94
2022/11/26 09:41:15;;;;;;;7.15;5.50;;;;;;;;;;5013772;28;20018;-95
2022/11/26 09:43:56;;;;;;;8.60;6.07;;;;;;;;;;5023956;28;20037;-95
2022/11/26 09:46:27;;;;;;;6.78;5.25;;;;;;;;;;5007311;28;20030;-96
2022/11/26 09:48:54;;;;;;;7.78;5.18;;;;;;;;;;5005561;28;20049;-95
2022/11/26 09:51:21;;;;;;;6.90;4.32;;;;;;;;;;5010856;28;20041;-95
2022/11/26 09:53:57;;;;;;;6.45;4.47;;;;;;;;;;5017823;28;20037;-94
2022/11/26 09:56:28;;;;;;;9.00;4.40;;;;;;;;;;5000353;28;20107;-93
2022/11/26 09:59:00;;;;;;;8.57;4.18;;;;;;;;;;5000262;28;20062;-90
2022/11/26 10:01:28;;;;;;;8.25;4.00;;;;;;;;;;5018028;28;20030;-90
2022/11/26 10:03:58;;;;;;;7.05;4.75;;;;;;;;;;5000384;28;20068;-95
2022/11/26 10:06:32;;;;;;;6.28;4.00;;;;;;;;;;5001074;28;20070;-95
2022/11/26 10:09:05;;;;;;;6.65;4.50;;;;;;;;;;5000762;28;20037;-93
2022/11/26 10:11:35;;;;;;;7.20;4.30;;;;;;;;;;5018504;28;20053;-94
2022/11/26 10:14:13;;;;;;;8.13;4.80;;;;;;;;;;5002426;28;20034;-94
2022/11/26 10:17:06;;;;;;;8.07;5.45;;;;;;;;;;5022628;28;20077;-92
2022/11/26 10:19:32;;;;;;;8.95;5.22;;;;;;;;;;4991258;28;20109;-94
2022/11/26 10:22:03;;;;;;;7.90;5.13;;;;;;;;;;5009946;28;20030;-96
2022/11/26 10:24:31;;;;;;;10.30;6.25;;;;;;;;;;5003795;28;20076;-96
2022/11/26 10:27:00;;;;;;;9.68;5.70;;;;;;;;;;5003480;28;20410;-96
2022/11/26 10:29:29;;;;;;;12.20;6.05;;;;;;;;;;5007133;28;20018;-96
2022/11/26 10:32:01;;;;;;;11.45;6.60;;;;;;;;;;4991607;28;20466;-96
2022/11/26 10:34:38;;;;;;;10.45;5.97;;;;;;;;;;5011479;28;20052;-96
2022/11/26 10:37:32;;;;;;;;;;;;;;;;;;;;;
2022/11/26 10:40:16;;;;;;;9.45;5.65;;;;;;;;;;5030240;28;20065;-96
2022/11/26 10:42:43;;;;;;;11.05;5.78;;;;;;;;;;5005718;28;20030;-95
2022/11/26 10:45:20;;;;;;;8.23;4.43;;;;;;;;;;5000242;28;20045;-96
2022/11/26 10:47:47;;;;;;;7.63;4.70;;;;;;;;;;5002890;28;20117;-96
2022/11/26 10:50:22;;;;;;;11.65;5.30;;;;;;;;;;5006543;28;20026;-96
2022/11/26 10:52:48;;;;;;;8.90;5.10;;;;;;;;;;5007841;28;20042;-96
2022/11/26 10:55:34;;;;;;;10.27;5.57;;;;;;;;;;5004415;28;20042;-96
2022/11/26 10:58:05;;;;;;;9.02;4.68;;;;;;;;;;4987745;28;20030;-96
2022/11/26 11:00:53;;;;;;;9.43;4.80;;;;;;;;;;5003296;28;20029;-95
2022/11/26 11:03:24;;;;;;;10.27;5.32;;;;;;;;;;5019336;28;20044;-94
2022/11/26 11:05:50;;;;;;;8.43;4.50;;;;;;;;;;5005840;28;20022;-91
2022/11/26 11:08:37;;;;;;;11.13;5.72;;;;;;;;;;5006461;28;20033;-95
2022/11/26 11:11:27;;;;;;;10.70;5.40;;;;;;;;;;5003308;28;20050;-96
2022/11/26 11:14:27;;;;;;;10.95;5.32;;;;;;;;;;4992183;28;20054;-95
2022/11/26 11:16:57;;;;;;;10.27;4.97;;;;;;;;;;5117270;23;20060;-94
2022/11/26 11:19:23;;;;;;;11.27;5.60;;;;;;;;;;5136081;23;20033;31
2022/11/26 11:21:55;;;;;;;9.32;5.40;;;;;;;;;;5011031;28;20034;-95
2022/11/26 11:24:30;;;;;;;9.23;4.97;;;;;;;;;;5007183;28;20025;-96
2022/11/26 11:27:01;;;;;;;10.77;5.53;;;;;;;;;;5007777;28;20029;-89
2022/11/26 11:29:36;;;;;;;11.77;4.97;;;;;;;;;;5028347;28;20033;-95
2022/11/26 11:32:04;;;;;;;9.82;4.80;;;;;;;;;;5007832;28;20049;-90
2022/11/26 11:34:41;;;;;;;9.77;5.13;;;;;;;;;;5011218;28;20037;-90
2022/11/26 11:37:28;;;;;;;12.90;5.93;;;;;;;;;;5032730;28;20089;-95
2022/11/26 11:40:26;;;;;;;9.30;5.50;;;;;;;;;;5011089;28;20018;-89
2022/11/26 11:43:02;;;;;;;8.75;5.03;;;;;;;;;;5000267;28;20068;-96
2022/11/26 11:45:45;;;;;;;;;;;;;;;;;;;;;
2022/11/26 11:48:23;;;;;;;14.15;5.88;;;;;;;;;;5029012;28;20104;-95
2022/11/26 11:51:14;;;;;;;11.93;5.18;;;;;;;;;;5013899;28;20060;-95
2022/11/26 11:54:09;;;;;;;11.95;5.75;;;;;;;;;;5005750;28;20045;-95
2022/11/26 11:56:37;;;;;;;11.70;5.72;;;;;;;;;;5008783;28;20018;-96
2022/11/26 11:59:22;;;;;;;11.10;6.03;;;;;;;;;;5008733;28;20038;-89
2022/11/26 12:02:20;;;;;;;;;;;;;;;;;;;;;
2022/11/26 12:05:00;;;;;;;14.65;6.35;;;;;;;;;;5024900;28;20076;-96
2022/11/26 12:07:50;;;;;;;11.00;5.57;;;;;;;;;;5009363;28;20026;-92
2022/11/26 12:10:32;;;;;;;12.65;6.38;;;;;;;;;;5025823;28;20030;-96
2022/11/26 12:13:03;;;;;;;9.43;5.47;;;;;;;;;;5027331;28;20483;-95
2022/11/26 12:15:59;;;;;;;12.70;6.15;;;;;;;;;;5031791;28;20026;-96
2022/11/26 12:18:54;;;;;;;11.00;6.22;;;;;;;;;;5000568;28;20038;-96
2022/11/26 12:21:45;;;;;;;10.23;5.80;;;;;;;;;;4961432;28;20047;-95
2022/11/26 12:24:26;;;;;;;11.25;6.13;;;;;;;;;;5034263;28;20040;-96
2022/11/26 12:26:57;;;;;;;9.35;5.50;;;;;;;;;;5025245;28;20049;-91
2022/11/26 12:29:55;;;;;;;;;;;;;;;;;;;;;
2022/11/26 12:32:42;;;;;;;12.57;5.77;;;;;;;;;;5034186;28;20042;-95
2022/11/26 12:35:21;;;;;;;9.93;6.15;;;;;;;;;;5018190;28;20320;-96
2022/11/26 12:37:50;;;;;;;11.30;5.75;;;;;;;;;;5015210;28;20073;-95
2022/11/26 12:40:45;;;;;;;10.25;5.70;;;;;;;;;;5010143;28;20077;-96
2022/11/26 12:43:38;;;;;;;10.25;5.30;;;;;;;;;;4930117;28;20032;-96
2022/11/26 12:46:43;;;;;;;12.20;5.57;;;;;;;;;;5010628;28;20026;-89
2022/11/26 12:49:35;;;;;;;11.85;5.60;;;;;;;;;;4919182;28;20024;-94
2022/11/26 12:52:13;;;;;;;9.98;5.13;;;;;;;;;;5011900;28;20044;-88
2022/11/26 12:54:43;;;;;;;11.55;6.18;;;;;;;;;;5008214;28;20030;-96
2022/11/26 12:57:38;;;;;;;12.65;5.40;;;;;;;;;;5029599;28;20034;-96
2022/11/26 13:00:25;;;;;;;11.80;5.57;;;;;;;;;;4995113;28;20038;-96
2022/11/26 13:03:04;;;;;;;;;;;;;;;;;;;;;
2022/11/26 13:06:00;;;;;;;;;;;;;;;;;;;;;
2022/11/26 13:08:45;;;;;;;10.70;6.05;;;;;;;;;;5027961;28;20093;-94
2022/11/26 13:11:21;;;;;;;13.02;6.05;;;;;;;;;;5014319;28;20113;-96
2022/11/26 13:14:20;;;;;;;13.63;6.50;;;;;;;;;;5010845;28;20083;-95
2022/11/26 13:17:14;;;;;;;;;;;;;;;;;;;;;
2022/11/26 13:20:07;;;;;;;11.48;5.95;;;;;;;;;;5033049;28;20073;-94
2022/11/26 13:22:48;;;;;;;9.50;5.38;;;;;;;;;;5003115;28;20100;-95
2022/11/26 13:28:31;;;;;;;12.15;5.80;;;;;;;;;;5024433;28;20022;-93
2022/11/26 13:31:26;;;;;;;10.48;5.38;;;;;;;;;;5035051;28;20018;-91
2022/11/26 13:33:58;;;;;;;10.02;5.35;;;;;;;;;;5012482;28;20045;-95
2022/11/26 13:36:26;;;;;;;10.68;6.85;;;;;;;;;;5011482;28;20034;-95
2022/11/26 13:39:13;;;;;;;14.82;7.60;;;;;;;;;;5015541;28;20097;-95
2022/11/26 13:41:51;;;;;;;14.80;10.23;;;;;;;;;;5014369;28;20030;-93
2022/11/26 13:44:40;;;;;;;12.82;7.90;;;;;;;;;;5029281;28;20029;-95
2022/11/26 13:47:28;;;;;;;9.40;5.72;;;;;;;;;;5011013;28;20034;-95
2022/11/26 13:50:21;;;;;;;9.73;5.93;;;;;;;;;;5027886;28;20006;-92
2022/11/26 13:53:23;;;;;;;12.82;5.78;;;;;;;;;;5015612;28;20053;-95
2022/11/26 13:56:16;;;;;;;;;;;;;;;;;;;;;
2022/11/26 13:58:55;;;;;;;11.57;6.13;;;;;;;;;;5028451;28;20103;-96
2022/11/26 14:01:27;;;;;;;11.93;6.50;;;;;;;;;;5006126;28;20022;-91
2022/11/26 14:03:54;;;;;;;12.93;5.78;;;;;;;;;;5006407;28;20344;-91
2022/11/26 14:06:22;;;;;;;12.43;6.22;;;;;;;;;;5007888;28;20045;-95
2022/11/26 14:08:55;;;;;;;10.15;5.80;;;;;;;;;;5010889;28;20026;-90
2022/11/26 14:11:56;;;;;;;10.23;6.18;;;;;;;;;;5010294;28;20438;-96
2022/11/26 14:14:25;;;;;;;11.40;6.15;;;;;;;;;;4914921;29;20028;-89
2022/11/26 14:17:00;;;;;;;10.95;5.28;;;;;;;;;;4911196;29;20552;-88
2022/11/26 14:19:42;;;;;;;10.88;6.30;;;;;;;;;;4918064;29;20080;-91
2022/11/26 14:22:16;;;;;;;9.50;6.00;;;;;;;;;;4959286;28;20096;-96
2022/11/26 14:25:16;;;;;;;9.98;5.47;;;;;;;;;;4994267;28;20518;-93
2022/11/26 14:28:23;;;;;;;14.48;6.80;;;;;;;;;;5007236;28;20026;-96
2022/11/26 14:30:50;;;;;;;10.07;5.55;;;;;;;;;;4994497;28;20018;-91
2022/11/26 14:33:51;;;;;;;9.70;5.80;;;;;;;;;;4986699;28;20034;-96
2022/11/26 14:36:24;;;;;;;11.50;6.35;;;;;;;;;;4993124;28;20038;-95
2022/11/26 14:39:19;;;;;;;11.18;5.93;;;;;;;;;;4991384;28;20037;-96
2022/11/26 14:42:18;;;;;;;;;;;;;;;;;;;;;
2022/11/26 14:45:11;;;;;;;10.70;5.68;;;;;;;;;;5011738;28;20049;-95
2022/11/26 14:48:24;;;;;;;;;;;;;;;;;;;;;
2022/11/26 15:03:27;;;;;;;13.15;7.13;;;;;;;;;;4971206;29;20022;-94
2022/11/26 15:06:39;;;;;;;;;;;;;;;;;;;;;
2022/11/26 15:12:23;;;;;;;11.82;7.53;;;;;;;;;;4974738;28;20045;-94
2022/11/26 15:15:18;;;;;;;11.43;6.80;;;;;;;;;;4972540;29;20011;-96
2022/11/26 15:17:55;;;;;;;11.93;6.70;;;;;;;;;;4956092;29;20039;-91
2022/11/26 15:21:18;;;;;;;13.10;6.80;;;;;;;;;;4975209;29;20027;-96
2022/11/26 15:27:52;;;;;;;;;;;;;;;;;;;;;
2022/11/26 15:30:33;;;;;;;;;;;;;;;;;;;;;
2022/11/26 15:33:11;;;;;;;10.82;5.75;;;;;;;;;;5005945;28;20125;-93